Time;durP1;ratioP1;P1;durP2;ratioP2;P2;SDS_P1;SDS_P2;PMS_P1;PMS_P2;Temp;Humidity;BMP_temperature;BMP_pressure;BME280_temperature;BME280_humidity;BME280_pressure;Samples;Min_cycle;Max_cycle;Signal;HPM_P1;HPM_P2
2023/09/27 00:00:49;;;;;;;54.58;39.38;;;;;;;;;;2074809;28;20037;-57
2023/09/27 00:01:50;;;;;;;55.28;41.08;;;;;;;;;;2074259;28;20042;-57
2023/09/27 00:02:52;;;;;;;54.92;39.88;;;;;;;;;;2074189;28;20053;-56
2023/09/27 00:03:53;;;;;;;56.17;38.83;;;;;;;;;;2074178;28;20042;-57
2023/09/27 00:04:54;;;;;;;59.28;41.03;;;;;;;;;;2074170;28;20045;-57
2023/09/27 00:05:54;;;;;;;52.50;38.47;;;;;;;;;;2074393;28;20478;-57
2023/09/27 00:06:55;;;;;;;59.13;43.22;;;;;;;;;;2074233;28;20466;-57
2023/09/27 00:07:56;;;;;;;56.80;39.90;;;;;;;;;;2074619;28;20040;-57
2023/09/27 00:08:57;;;;;;;50.83;38.45;;;;;;;;;;2074531;28;20057;-56
2023/09/27 00:09:57;;;;;;;57.80;40.20;;;;;;;;;;2074240;28;20042;-57
2023/09/27 00:10:58;;;;;;;49.55;36.58;;;;;;;;;;2074218;28;20137;-56
2023/09/27 00:12:03;;;;;;;60.08;42.05;;;;;;;;;;2074389;28;20049;-56
2023/09/27 00:13:04;;;;;;;56.75;39.47;;;;;;;;;;2074460;28;20041;-56
2023/09/27 00:14:05;;;;;;;56.97;39.58;;;;;;;;;;2074376;28;20393;-57
2023/09/27 00:15:08;;;;;;;55.03;40.75;;;;;;;;;;2074300;28;20477;-56
2023/09/27 00:16:09;;;;;;;53.45;37.65;;;;;;;;;;2074478;28;20049;-57
2023/09/27 00:17:10;;;;;;;54.08;38.05;;;;;;;;;;2074367;28;20215;-57
2023/09/27 00:18:11;;;;;;;52.58;38.50;;;;;;;;;;2074077;28;20092;-57
2023/09/27 00:19:12;;;;;;;49.90;37.47;;;;;;;;;;2073874;28;20061;-56
2023/09/27 00:20:15;;;;;;;58.60;36.72;;;;;;;;;;2074307;28;20034;-56
2023/09/27 00:21:16;;;;;;;56.60;38.13;;;;;;;;;;2073813;28;20042;-57
2023/09/27 00:22:17;;;;;;;47.40;36.05;;;;;;;;;;2074340;28;20466;-56
2023/09/27 00:23:18;;;;;;;51.15;35.72;;;;;;;;;;2074030;28;20061;-56
2023/09/27 00:24:19;;;;;;;47.53;35.30;;;;;;;;;;2074279;28;20033;-57
2023/09/27 00:25:19;;;;;;;53.88;36.38;;;;;;;;;;2073824;28;20490;-56
2023/09/27 00:26:20;;;;;;;48.08;34.50;;;;;;;;;;2074420;28;20057;-56
2023/09/27 00:27:22;;;;;;;53.45;33.75;;;;;;;;;;2073643;28;20037;-57
2023/09/27 00:28:23;;;;;;;49.30;34.65;;;;;;;;;;2073135;28;20132;-57
2023/09/27 00:29:24;;;;;;;48.40;36.00;;;;;;;;;;2074625;28;20049;-56
2023/09/27 00:30:24;;;;;;;47.80;33.90;;;;;;;;;;2073731;28;20054;-56
2023/09/27 00:31:25;;;;;;;53.28;36.22;;;;;;;;;;2073786;28;20053;-57
2023/09/27 00:32:26;;;;;;;47.92;36.38;;;;;;;;;;2073915;28;20046;-56
2023/09/27 00:33:26;;;;;;;48.40;36.30;;;;;;;;;;2074240;28;20034;-57
2023/09/27 00:34:27;;;;;;;45.05;35.17;;;;;;;;;;2074327;28;20038;-57
2023/09/27 00:35:28;;;;;;;47.20;33.42;;;;;;;;;;2074292;28;20038;-57
2023/09/27 00:36:28;;;;;;;44.65;34.72;;;;;;;;;;2074399;28;20036;-56
2023/09/27 00:37:29;;;;;;;53.72;36.95;;;;;;;;;;2073885;28;20041;-56
2023/09/27 00:38:31;;;;;;;51.65;36.72;;;;;;;;;;2074247;28;20044;-56
2023/09/27 00:39:34;;;;;;;48.25;33.80;;;;;;;;;;2073714;28;20400;-57
2023/09/27 00:40:42;;;;;;;48.40;35.67;;;;;;;;;;2073768;28;20050;-56
2023/09/27 00:41:43;;;;;;;50.42;34.28;;;;;;;;;;2074132;28;20042;-57
2023/09/27 00:42:44;;;;;;;46.35;35.03;;;;;;;;;;2074397;28;20030;-57
2023/09/27 00:43:45;;;;;;;51.08;36.88;;;;;;;;;;2073215;28;20038;-57
2023/09/27 00:44:45;;;;;;;51.15;35.15;;;;;;;;;;2065300;28;20038;-56
2023/09/27 00:45:46;;;;;;;53.90;37.47;;;;;;;;;;2065542;28;20066;-56
2023/09/27 00:46:47;;;;;;;47.92;34.33;;;;;;;;;;2073592;28;20049;-57
2023/09/27 00:47:49;;;;;;;49.00;35.50;;;;;;;;;;2074253;28;20383;-56
2023/09/27 00:48:49;;;;;;;49.20;36.15;;;;;;;;;;2073727;28;20041;-56
2023/09/27 00:49:50;;;;;;;52.17;35.53;;;;;;;;;;2073240;28;20046;-56
2023/09/27 00:50:53;;;;;;;54.35;37.78;;;;;;;;;;2072721;28;20053;-57
2023/09/27 00:51:54;;;;;;;50.47;35.35;;;;;;;;;;2065096;28;20046;-56
2023/09/27 00:52:55;;;;;;;50.15;36.72;;;;;;;;;;2073588;28;20045;-56
2023/09/27 00:53:56;;;;;;;50.22;36.83;;;;;;;;;;2074230;28;20042;-56
2023/09/27 00:54:56;;;;;;;49.33;35.83;;;;;;;;;;2072912;28;20045;-56
2023/09/27 00:55:57;;;;;;;49.22;35.80;;;;;;;;;;2072699;28;20049;-57
2023/09/27 00:56:58;;;;;;;52.15;36.95;;;;;;;;;;2073326;28;20054;-57
2023/09/27 00:57:59;;;;;;;51.40;36.60;;;;;;;;;;2065394;28;20496;-56
2023/09/27 00:59:00;;;;;;;52.97;35.47;;;;;;;;;;2072697;28;20045;-56
2023/09/27 01:00:00;;;;;;;51.22;34.92;;;;;;;;;;2074170;28;20053;-57
2023/09/27 01:01:01;;;;;;;55.22;37.03;;;;;;;;;;2073952;28;20042;-56
2023/09/27 01:02:02;;;;;;;47.17;36.42;;;;;;;;;;2073996;28;20045;-56
2023/09/27 01:03:03;;;;;;;49.55;35.88;;;;;;;;;;2073594;28;20088;-57
2023/09/27 01:04:04;;;;;;;49.00;36.22;;;;;;;;;;2073819;28;20053;-57
2023/09/27 01:05:08;;;;;;;50.47;34.30;;;;;;;;;;2073531;28;20030;-56
2023/09/27 01:06:09;;;;;;;53.03;36.47;;;;;;;;;;2065351;28;20509;-57
2023/09/27 01:07:09;;;;;;;50.30;35.85;;;;;;;;;;2057502;28;20054;-57
2023/09/27 01:08:10;;;;;;;49.40;35.08;;;;;;;;;;2065081;28;20045;-57
2023/09/27 01:09:14;;;;;;;45.75;34.45;;;;;;;;;;2072581;28;20084;-57
2023/09/27 01:10:14;;;;;;;49.65;35.03;;;;;;;;;;2065526;28;20429;-57
2023/09/27 01:11:16;;;;;;;51.50;35.30;;;;;;;;;;2064569;28;20138;-57
2023/09/27 01:12:17;;;;;;;53.38;37.22;;;;;;;;;;2073151;28;20042;-57
2023/09/27 01:13:18;;;;;;;51.53;35.67;;;;;;;;;;2064734;28;20046;-57
2023/09/27 01:14:19;;;;;;;52.50;35.72;;;;;;;;;;2072704;28;20050;-57
2023/09/27 01:15:20;;;;;;;46.70;34.45;;;;;;;;;;2073777;28;20068;-57
2023/09/27 01:16:20;;;;;;;47.50;34.38;;;;;;;;;;2073856;28;20050;-57
2023/09/27 01:17:21;;;;;;;51.33;35.22;;;;;;;;;;2073461;28;20495;-57
2023/09/27 01:18:22;;;;;;;51.38;35.85;;;;;;;;;;2073638;28;20397;-57
2023/09/27 01:19:23;;;;;;;49.05;34.58;;;;;;;;;;2073374;28;20512;-57
2023/09/27 01:20:24;;;;;;;47.63;34.58;;;;;;;;;;2073366;28;20070;-56
2023/09/27 01:21:25;;;;;;;47.88;34.38;;;;;;;;;;2073245;28;20053;-57
2023/09/27 01:22:25;;;;;;;53.17;35.92;;;;;;;;;;2073910;28;20508;-57
2023/09/27 01:23:27;;;;;;;55.05;35.10;;;;;;;;;;2073400;28;20038;-57
2023/09/27 01:24:28;;;;;;;45.00;32.92;;;;;;;;;;2064234;28;20053;-57
2023/09/27 01:25:29;;;;;;;44.90;33.45;;;;;;;;;;2065603;28;20071;-57
2023/09/27 01:26:30;;;;;;;47.72;34.10;;;;;;;;;;2064654;28;20476;-57
2023/09/27 01:27:31;;;;;;;46.78;33.95;;;;;;;;;;2073474;28;20042;-57
2023/09/27 01:28:32;;;;;;;41.95;33.15;;;;;;;;;;2065017;28;20046;-57
2023/09/27 01:29:33;;;;;;;46.50;31.85;;;;;;;;;;2064959;28;20050;-57
2023/09/27 01:30:34;;;;;;;47.80;34.00;;;;;;;;;;2064564;28;20042;-57
2023/09/27 01:31:36;;;;;;;42.90;31.23;;;;;;;;;;2073261;28;20038;-57
2023/09/27 01:32:37;;;;;;;47.60;33.42;;;;;;;;;;2073227;28;20034;-57
2023/09/27 01:33:37;;;;;;;45.38;32.15;;;;;;;;;;2065199;28;20038;-57
2023/09/27 01:34:38;;;;;;;47.67;31.67;;;;;;;;;;2072761;28;20041;-57
2023/09/27 01:35:39;;;;;;;44.13;29.77;;;;;;;;;;2073887;28;20507;-57
2023/09/27 01:36:40;;;;;;;40.10;29.08;;;;;;;;;;2073145;28;20052;-57
2023/09/27 01:37:41;;;;;;;46.45;32.15;;;;;;;;;;2074147;28;20041;-57
2023/09/27 01:38:42;;;;;;;44.22;30.13;;;;;;;;;;2073605;28;20116;-57
2023/09/27 01:39:43;;;;;;;37.38;27.40;;;;;;;;;;2072633;28;20042;-57
2023/09/27 01:40:44;;;;;;;38.97;28.50;;;;;;;;;;2074093;28;20022;-57
2023/09/27 01:41:45;;;;;;;41.33;32.15;;;;;;;;;;2073488;28;20042;-57
2023/09/27 01:42:46;;;;;;;40.10;30.85;;;;;;;;;;2073914;28;20026;-57
2023/09/27 01:43:46;;;;;;;41.88;31.52;;;;;;;;;;2073288;28;20142;-57
2023/09/27 01:44:47;;;;;;;41.63;31.23;;;;;;;;;;2073408;28;20053;-57
2023/09/27 01:45:48;;;;;;;41.97;32.28;;;;;;;;;;2072589;28;20511;-57
2023/09/27 01:46:49;;;;;;;47.03;31.52;;;;;;;;;;2072781;28;20038;-57
2023/09/27 01:47:50;;;;;;;41.67;30.27;;;;;;;;;;2073819;28;20034;-57
2023/09/27 01:48:51;;;;;;;39.58;29.98;;;;;;;;;;2073148;28;20080;-57
2023/09/27 01:49:52;;;;;;;44.33;30.48;;;;;;;;;;2072239;28;20045;-57
2023/09/27 01:50:53;;;;;;;42.50;31.35;;;;;;;;;;2072610;28;20049;-57
2023/09/27 01:51:54;;;;;;;42.70;30.42;;;;;;;;;;2073454;28;20112;-57
2023/09/27 01:52:55;;;;;;;40.65;30.70;;;;;;;;;;2065104;28;20045;-57
2023/09/27 01:53:56;;;;;;;40.67;30.08;;;;;;;;;;2073396;28;20044;-57
2023/09/27 01:54:57;;;;;;;44.22;31.10;;;;;;;;;;2073771;28;20033;-57
2023/09/27 01:55:58;;;;;;;44.25;31.45;;;;;;;;;;2073492;28;20037;-57
2023/09/27 01:56:59;;;;;;;48.67;33.10;;;;;;;;;;2064887;28;20490;-57
2023/09/27 01:58:00;;;;;;;48.42;33.05;;;;;;;;;;2065071;28;20042;-57
2023/09/27 01:59:01;;;;;;;49.67;34.67;;;;;;;;;;2073214;28;20089;-57
2023/09/27 02:00:03;;;;;;;48.65;34.70;;;;;;;;;;2064347;28;20061;-56
2023/09/27 02:01:12;;;;;;;46.97;34.30;;;;;;;;;;2072790;28;20046;-57
2023/09/27 02:02:13;;;;;;;42.20;32.75;;;;;;;;;;2073225;28;20033;-57
2023/09/27 02:03:14;;;;;;;44.08;33.15;;;;;;;;;;2072480;28;20042;-57
2023/09/27 02:04:15;;;;;;;45.80;31.85;;;;;;;;;;2072238;28;20057;-57
2023/09/27 02:05:16;;;;;;;45.88;31.75;;;;;;;;;;2072843;28;20049;-57
2023/09/27 02:06:16;;;;;;;43.35;29.92;;;;;;;;;;2073401;28;20120;-56
2023/09/27 02:07:17;;;;;;;44.45;30.45;;;;;;;;;;2073164;28;20045;-57
2023/09/27 02:08:18;;;;;;;44.55;28.92;;;;;;;;;;2073347;28;20095;-57
2023/09/27 02:09:19;;;;;;;44.22;32.08;;;;;;;;;;2073762;28;20034;-57
2023/09/27 02:10:20;;;;;;;42.95;31.50;;;;;;;;;;2072485;28;20057;-57
2023/09/27 02:11:25;;;;;;;45.30;31.08;;;;;;;;;;2072505;28;20045;-57
2023/09/27 02:12:25;;;;;;;38.80;31.50;;;;;;;;;;2073894;28;20041;-57
2023/09/27 02:13:26;;;;;;;47.00;33.25;;;;;;;;;;2073093;28;20065;-57
2023/09/27 02:14:28;;;;;;;47.53;33.25;;;;;;;;;;2072167;28;20049;-57
2023/09/27 02:15:28;;;;;;;42.42;30.02;;;;;;;;;;2072896;28;20135;-57
2023/09/27 02:16:30;;;;;;;47.85;32.83;;;;;;;;;;2064337;28;20399;-57
2023/09/27 02:17:32;;;;;;;48.60;34.22;;;;;;;;;;2073324;28;20046;-57
2023/09/27 02:18:32;;;;;;;43.15;32.22;;;;;;;;;;2073076;28;20053;-57
2023/09/27 02:19:34;;;;;;;46.75;34.00;;;;;;;;;;2072578;28;20046;-58
2023/09/27 02:20:35;;;;;;;42.92;32.90;;;;;;;;;;2066538;28;20038;-57
2023/09/27 02:21:35;;;;;;;43.00;31.70;;;;;;;;;;2074666;28;20089;-57
2023/09/27 02:22:36;;;;;;;39.17;30.20;;;;;;;;;;2073978;28;20046;-57
2023/09/27 02:23:38;;;;;;;41.97;29.30;;;;;;;;;;2074368;28;20478;-57
2023/09/27 02:24:39;;;;;;;42.00;30.10;;;;;;;;;;2074786;28;20030;-57
2023/09/27 02:25:40;;;;;;;41.20;31.10;;;;;;;;;;2075206;28;20049;-58
2023/09/27 02:26:41;;;;;;;40.17;30.23;;;;;;;;;;2074930;28;20385;-58
2023/09/27 02:27:42;;;;;;;38.63;29.13;;;;;;;;;;2074943;28;20516;-57
2023/09/27 02:28:43;;;;;;;39.20;29.58;;;;;;;;;;2066701;28;20498;-57
2023/09/27 02:29:43;;;;;;;40.85;29.77;;;;;;;;;;2066709;28;20042;-57
2023/09/27 02:30:44;;;;;;;38.95;29.23;;;;;;;;;;2074582;28;20022;-57
2023/09/27 02:31:45;;;;;;;37.05;27.88;;;;;;;;;;2075122;28;20030;-57
2023/09/27 02:32:46;;;;;;;38.45;29.70;;;;;;;;;;2075150;28;20033;-57
2023/09/27 02:33:46;;;;;;;41.78;30.05;;;;;;;;;;2074989;28;20042;-57
2023/09/27 02:34:47;;;;;;;42.65;31.52;;;;;;;;;;2075147;28;20022;-57
2023/09/27 02:35:48;;;;;;;42.13;30.13;;;;;;;;;;2074517;28;20095;-57
2023/09/27 02:36:49;;;;;;;39.47;29.98;;;;;;;;;;2074075;28;20045;-57
2023/09/27 02:37:49;;;;;;;45.00;32.85;;;;;;;;;;2074831;28;20038;-57
2023/09/27 02:38:50;;;;;;;44.60;31.23;;;;;;;;;;2074570;28;20147;-57
2023/09/27 02:39:51;;;;;;;48.53;32.72;;;;;;;;;;2075043;28;20428;-57
2023/09/27 02:40:52;;;;;;;43.97;32.47;;;;;;;;;;2074260;28;20041;-57
2023/09/27 02:41:52;;;;;;;42.80;32.70;;;;;;;;;;2073977;28;20049;-57
2023/09/27 02:42:53;;;;;;;44.00;32.17;;;;;;;;;;2075071;28;20038;-57
2023/09/27 02:43:54;;;;;;;46.00;33.47;;;;;;;;;;2075214;28;20476;-57
2023/09/27 02:44:55;;;;;;;50.03;33.90;;;;;;;;;;2074943;28;20046;-57
2023/09/27 02:45:56;;;;;;;46.88;34.35;;;;;;;;;;2074352;28;20033;-57
2023/09/27 02:46:57;;;;;;;48.00;35.08;;;;;;;;;;2065648;28;20050;-57
2023/09/27 02:47:58;;;;;;;47.35;33.30;;;;;;;;;;2074494;28;20390;-57
2023/09/27 02:49:00;;;;;;;41.92;31.77;;;;;;;;;;2073727;28;20046;-57
2023/09/27 02:50:02;;;;;;;41.75;31.40;;;;;;;;;;2065898;28;20050;-57
2023/09/27 02:51:03;;;;;;;41.70;31.73;;;;;;;;;;2066525;28;20046;-57
2023/09/27 02:52:06;;;;;;;45.35;31.60;;;;;;;;;;2074576;28;20497;-57
2023/09/27 02:53:08;;;;;;;43.25;31.25;;;;;;;;;;2074422;28;20394;-57
2023/09/27 02:54:09;;;;;;;44.90;32.10;;;;;;;;;;2074745;28;20052;-57
2023/09/27 02:55:09;;;;;;;41.25;31.60;;;;;;;;;;2074990;28;20038;-57
2023/09/27 02:56:12;;;;;;;41.33;31.80;;;;;;;;;;2074390;28;20215;-57
2023/09/27 02:57:13;;;;;;;42.35;31.40;;;;;;;;;;2073813;28;20053;-57
2023/09/27 02:58:15;;;;;;;45.97;32.85;;;;;;;;;;2074451;28;20038;-57
2023/09/27 02:59:16;;;;;;;42.40;31.70;;;;;;;;;;2066529;28;20506;-57
2023/09/27 03:00:18;;;;;;;45.90;31.88;;;;;;;;;;2074319;28;20034;-57
2023/09/27 03:01:19;;;;;;;41.90;31.95;;;;;;;;;;2073615;28;20038;-58
2023/09/27 03:02:20;;;;;;;46.35;32.13;;;;;;;;;;2065936;28;20054;-57
2023/09/27 03:03:21;;;;;;;43.70;27.83;;;;;;;;;;2066045;28;20142;-57
2023/09/27 03:04:22;;;;;;;42.63;29.17;;;;;;;;;;2065727;28;20050;-57
2023/09/27 03:05:23;;;;;;;38.97;28.02;;;;;;;;;;2073775;28;20077;-57
2023/09/27 03:06:24;;;;;;;42.00;29.00;;;;;;;;;;2074970;28;20034;-57
2023/09/27 03:07:24;;;;;;;40.47;24.73;;;;;;;;;;2073986;28;20502;-57
2023/09/27 03:08:25;;;;;;;36.60;26.90;;;;;;;;;;2073715;28;20053;-58
2023/09/27 03:09:26;;;;;;;39.67;29.23;;;;;;;;;;2074148;28;20053;-58
2023/09/27 03:10:27;;;;;;;37.33;28.50;;;;;;;;;;2074269;28;20042;-58
2023/09/27 03:11:28;;;;;;;37.22;27.95;;;;;;;;;;2074546;28;20034;-58
2023/09/27 03:12:28;;;;;;;38.92;28.90;;;;;;;;;;2074571;28;20080;-57
2023/09/27 03:13:29;;;;;;;41.28;29.50;;;;;;;;;;2073733;28;20057;-57
2023/09/27 03:14:30;;;;;;;36.53;28.05;;;;;;;;;;2074653;28;20038;-57
2023/09/27 03:15:32;;;;;;;36.35;29.30;;;;;;;;;;2074948;28;20553;-63
2023/09/27 03:16:34;;;;;;;37.10;29.50;;;;;;;;;;2075751;28;20040;-57
2023/09/27 03:17:35;;;;;;;42.88;29.23;;;;;;;;;;2075846;28;20046;-57
2023/09/27 03:18:35;;;;;;;44.72;31.15;;;;;;;;;;2067895;28;20482;-58
2023/09/27 03:19:36;;;;;;;42.40;30.88;;;;;;;;;;2066571;28;20049;-56
2023/09/27 03:20:38;;;;;;;43.25;31.75;;;;;;;;;;2074245;28;20026;-57
2023/09/27 03:21:38;;;;;;;39.60;30.77;;;;;;;;;;2074570;28;20038;-57
2023/09/27 03:22:39;;;;;;;40.97;30.45;;;;;;;;;;2074271;28;20038;-57
2023/09/27 03:23:40;;;;;;;44.00;32.70;;;;;;;;;;2066129;28;20068;-57
2023/09/27 03:24:41;;;;;;;43.30;32.28;;;;;;;;;;2066129;28;20037;-57
2023/09/27 03:25:42;;;;;;;42.88;31.13;;;;;;;;;;2066020;28;20053;-57
2023/09/27 03:26:43;;;;;;;42.08;32.20;;;;;;;;;;2073533;28;20049;-57
2023/09/27 03:27:44;;;;;;;42.28;31.05;;;;;;;;;;2074553;28;20433;-57
2023/09/27 03:28:44;;;;;;;39.13;30.42;;;;;;;;;;2074453;28;20089;-57
2023/09/27 03:29:46;;;;;;;43.75;32.83;;;;;;;;;;2074793;28;20426;-57
2023/09/27 03:30:47;;;;;;;43.30;32.50;;;;;;;;;;2073867;28;20389;-57
2023/09/27 03:31:48;;;;;;;42.92;31.60;;;;;;;;;;2065405;28;20502;-57
2023/09/27 03:32:48;;;;;;;46.80;32.22;;;;;;;;;;2073557;28;20069;-57
2023/09/27 03:33:49;;;;;;;45.38;32.22;;;;;;;;;;2074059;28;20037;-57
2023/09/27 03:34:50;;;;;;;41.40;32.67;;;;;;;;;;2073571;28;20532;-57
2023/09/27 03:35:51;;;;;;;48.00;31.38;;;;;;;;;;2074091;28;20060;-57
2023/09/27 03:36:55;;;;;;;44.88;31.00;;;;;;;;;;2065938;28;20084;-57
2023/09/27 03:37:56;;;;;;;39.33;30.30;;;;;;;;;;2074503;28;20038;-57
2023/09/27 03:38:57;;;;;;;41.38;31.48;;;;;;;;;;2073948;28;20133;-57
2023/09/27 03:39:58;;;;;;;40.90;29.98;;;;;;;;;;2073811;28;20136;-58
2023/09/27 03:40:59;;;;;;;40.10;28.92;;;;;;;;;;2073690;28;20425;-57
2023/09/27 03:42:00;;;;;;;43.53;30.42;;;;;;;;;;2074272;28;20034;-58
2023/09/27 03:43:01;;;;;;;39.83;30.35;;;;;;;;;;2073808;28;20076;-57
2023/09/27 03:44:03;;;;;;;40.90;29.55;;;;;;;;;;2074037;28;20048;-57
2023/09/27 03:45:05;;;;;;;45.10;30.92;;;;;;;;;;2074047;28;20045;-57
2023/09/27 03:46:06;;;;;;;44.08;31.42;;;;;;;;;;2073439;28;20050;-57
2023/09/27 03:47:08;;;;;;;40.63;29.40;;;;;;;;;;2065377;28;20461;-57
2023/09/27 03:48:09;;;;;;;45.53;32.75;;;;;;;;;;2065913;28;20050;-57
2023/09/27 03:49:12;;;;;;;42.45;30.95;;;;;;;;;;2065457;28;20038;-57
2023/09/27 03:50:14;;;;;;;46.38;33.55;;;;;;;;;;2073483;28;20420;-57
2023/09/27 03:51:22;;;;;;;42.63;31.90;;;;;;;;;;2074115;28;20049;-57
2023/09/27 03:52:23;;;;;;;47.08;33.35;;;;;;;;;;2074211;28;20443;-57
2023/09/27 03:53:24;;;;;;;42.55;32.15;;;;;;;;;;2074930;28;20381;-57
2023/09/27 03:54:25;;;;;;;41.97;31.58;;;;;;;;;;2073905;28;20161;-58
2023/09/27 03:55:27;;;;;;;41.22;31.67;;;;;;;;;;2065773;28;20038;-58
2023/09/27 03:56:28;;;;;;;41.50;30.30;;;;;;;;;;2065850;28;20038;-57
2023/09/27 03:57:28;;;;;;;43.65;31.13;;;;;;;;;;2073368;28;20049;-58
2023/09/27 03:58:29;;;;;;;46.88;32.72;;;;;;;;;;2073643;28;20048;-58
2023/09/27 03:59:30;;;;;;;49.90;33.15;;;;;;;;;;2065864;28;20043;-57
2023/09/27 04:00:31;;;;;;;46.35;33.40;;;;;;;;;;2065426;28;20433;-57
2023/09/27 04:01:32;;;;;;;44.20;30.88;;;;;;;;;;2065546;28;20049;-57
2023/09/27 04:02:32;;;;;;;44.67;31.63;;;;;;;;;;2065187;28;20050;-57
2023/09/27 04:03:33;;;;;;;43.55;31.33;;;;;;;;;;2065685;28;20042;-58
2023/09/27 04:04:34;;;;;;;44.03;32.42;;;;;;;;;;2065924;28;20053;-57
2023/09/27 04:05:34;;;;;;;45.30;31.33;;;;;;;;;;2073300;28;20387;-57
2023/09/27 04:06:36;;;;;;;45.58;31.73;;;;;;;;;;2074750;28;20045;-57
2023/09/27 04:07:37;;;;;;;39.13;29.92;;;;;;;;;;2074400;28;20494;-57
2023/09/27 04:08:37;;;;;;;45.80;31.88;;;;;;;;;;2074516;28;20041;-57
2023/09/27 04:09:38;;;;;;;40.58;30.52;;;;;;;;;;2074675;28;20034;-57
2023/09/27 04:10:39;;;;;;;40.78;31.05;;;;;;;;;;2074347;28;20045;-57
2023/09/27 04:11:39;;;;;;;42.72;30.88;;;;;;;;;;2074628;28;20021;-56
2023/09/27 04:12:40;;;;;;;43.83;32.58;;;;;;;;;;2074722;28;20168;-57
2023/09/27 04:13:41;;;;;;;46.60;32.60;;;;;;;;;;2073704;28;20073;-57
2023/09/27 04:14:41;;;;;;;47.40;34.72;;;;;;;;;;2074445;28;20042;-57
2023/09/27 04:15:42;;;;;;;47.65;33.90;;;;;;;;;;2073498;28;20066;-57
2023/09/27 04:16:43;;;;;;;50.58;33.80;;;;;;;;;;2073864;28;20493;-57
2023/09/27 04:17:44;;;;;;;47.33;33.50;;;;;;;;;;2074124;28;20038;-57
2023/09/27 04:18:44;;;;;;;47.75;32.33;;;;;;;;;;2074786;28;20026;-57
2023/09/27 04:19:45;;;;;;;45.60;33.83;;;;;;;;;;2074257;28;20042;-57
2023/09/27 04:20:46;;;;;;;44.92;33.88;;;;;;;;;;2074343;28;20033;-58
2023/09/27 04:21:46;;;;;;;56.67;34.17;;;;;;;;;;2074021;28;20065;-57
2023/09/27 04:22:48;;;;;;;47.90;32.78;;;;;;;;;;2074385;28;20377;-58
2023/09/27 04:23:59;;;;;;;42.72;31.17;;;;;;;;;;2073827;28;20065;-57
2023/09/27 04:24:59;;;;;;;53.28;34.00;;;;;;;;;;2073789;28;20030;-57
2023/09/27 04:26:00;;;;;;;47.97;33.88;;;;;;;;;;2073628;28;20050;-57
2023/09/27 04:27:01;;;;;;;43.40;32.08;;;;;;;;;;2074448;28;20034;-56
2023/09/27 04:28:02;;;;;;;45.28;33.10;;;;;;;;;;2074520;28;20034;-57
2023/09/27 04:29:04;;;;;;;45.15;31.45;;;;;;;;;;2073683;28;20096;-58
2023/09/27 04:30:07;;;;;;;47.38;32.65;;;;;;;;;;2074140;28;20061;-57
2023/09/27 04:31:09;;;;;;;46.10;32.25;;;;;;;;;;2073971;28;20046;-57
2023/09/27 04:32:10;;;;;;;43.83;31.70;;;;;;;;;;2074368;28;20405;-58
2023/09/27 04:33:10;;;;;;;41.88;31.48;;;;;;;;;;2074031;28;20041;-57
2023/09/27 04:34:11;;;;;;;54.05;32.78;;;;;;;;;;2074242;28;20045;-57
2023/09/27 04:35:13;;;;;;;40.88;30.90;;;;;;;;;;2073707;28;20441;-57
2023/09/27 04:36:17;;;;;;;43.42;30.92;;;;;;;;;;2073615;28;20425;-57
2023/09/27 04:37:17;;;;;;;39.67;30.65;;;;;;;;;;2074010;28;20057;-57
2023/09/27 04:38:18;;;;;;;41.03;29.88;;;;;;;;;;2074385;28;20493;-58
2023/09/27 04:39:19;;;;;;;40.58;29.73;;;;;;;;;;2073883;28;20046;-58
2023/09/27 04:40:20;;;;;;;40.65;29.45;;;;;;;;;;2073867;28;20133;-57
2023/09/27 04:41:20;;;;;;;42.20;29.20;;;;;;;;;;2074220;28;20085;-57
2023/09/27 04:42:21;;;;;;;40.38;28.55;;;;;;;;;;2073805;28;20056;-57
2023/09/27 04:43:22;;;;;;;39.13;29.55;;;;;;;;;;2073820;28;20045;-57
2023/09/27 04:44:23;;;;;;;40.53;30.63;;;;;;;;;;2073910;28;20531;-58
2023/09/27 04:45:24;;;;;;;41.50;29.38;;;;;;;;;;2074033;28;20037;-57
2023/09/27 04:46:25;;;;;;;43.92;30.13;;;;;;;;;;2074133;28;20485;-57
2023/09/27 04:47:26;;;;;;;33.55;27.08;;;;;;;;;;2073986;28;20030;-57
2023/09/27 04:48:27;;;;;;;37.67;28.65;;;;;;;;;;2072799;28;20041;-57
2023/09/27 04:49:28;;;;;;;37.92;29.15;;;;;;;;;;2072688;28;20042;-58
2023/09/27 04:50:29;;;;;;;35.78;27.30;;;;;;;;;;2073566;28;20060;-58
2023/09/27 04:51:30;;;;;;;36.08;27.42;;;;;;;;;;2074016;28;20120;-57
2023/09/27 04:52:30;;;;;;;36.17;26.83;;;;;;;;;;2074197;28;20052;-57
2023/09/27 04:53:34;;;;;;;37.92;26.92;;;;;;;;;;2073741;28;20049;-57
2023/09/27 04:54:35;;;;;;;35.97;25.15;;;;;;;;;;2073851;28;20041;-58
2023/09/27 04:55:36;;;;;;;36.42;27.60;;;;;;;;;;2074389;28;20462;-57
2023/09/27 04:56:36;;;;;;;35.50;25.02;;;;;;;;;;2074116;28;20120;-57
2023/09/27 04:57:37;;;;;;;35.80;27.60;;;;;;;;;;2074234;28;20018;-57
2023/09/27 04:58:39;;;;;;;32.13;24.60;;;;;;;;;;2073976;28;20053;-57
2023/09/27 04:59:39;;;;;;;38.78;26.15;;;;;;;;;;2073881;28;20038;-57
2023/09/27 05:00:40;;;;;;;33.88;26.17;;;;;;;;;;2074257;28;20454;-57
2023/09/27 05:01:41;;;;;;;38.63;27.90;;;;;;;;;;2072898;28;20073;-57
2023/09/27 05:02:42;;;;;;;36.88;29.23;;;;;;;;;;2073407;28;20033;-57
2023/09/27 05:03:43;;;;;;;35.00;27.02;;;;;;;;;;2073746;28;20045;-57
2023/09/27 05:04:45;;;;;;;34.70;27.02;;;;;;;;;;2073390;28;20481;-57
2023/09/27 05:05:45;;;;;;;34.17;26.05;;;;;;;;;;2073455;28;20034;-57
2023/09/27 05:06:46;;;;;;;37.58;25.95;;;;;;;;;;2074058;28;20033;-57
2023/09/27 05:07:48;;;;;;;35.28;26.20;;;;;;;;;;2073962;28;20420;-57
2023/09/27 05:08:50;;;;;;;34.47;27.13;;;;;;;;;;2073989;28;20045;-58
2023/09/27 05:09:50;;;;;;;37.17;27.30;;;;;;;;;;2073947;28;20046;-57
2023/09/27 05:10:51;;;;;;;37.95;27.70;;;;;;;;;;2073797;28;20065;-57
2023/09/27 05:11:52;;;;;;;38.30;29.67;;;;;;;;;;2073363;28;20041;-57
2023/09/27 05:12:52;;;;;;;34.72;26.48;;;;;;;;;;2064658;28;20062;-57
2023/09/27 05:13:53;;;;;;;35.40;27.55;;;;;;;;;;2073356;28;20034;-57
2023/09/27 05:14:54;;;;;;;41.40;28.17;;;;;;;;;;2073587;28;20049;-57
2023/09/27 05:15:55;;;;;;;33.67;26.95;;;;;;;;;;2073456;28;20033;-57
2023/09/27 05:16:55;;;;;;;41.38;27.90;;;;;;;;;;2073526;28;20030;-57
2023/09/27 05:17:56;;;;;;;35.95;27.95;;;;;;;;;;2073714;28;20049;-57
2023/09/27 05:18:57;;;;;;;37.15;27.63;;;;;;;;;;2073806;28;20046;-57
2023/09/27 05:19:58;;;;;;;35.17;25.98;;;;;;;;;;2074144;28;20041;-57
2023/09/27 05:21:03;;;;;;;31.63;24.35;;;;;;;;;;2073670;28;20050;-57
2023/09/27 05:22:04;;;;;;;33.88;25.33;;;;;;;;;;2074044;28;20025;-58
2023/09/27 05:23:05;;;;;;;37.40;26.95;;;;;;;;;;2073042;28;20572;-57
2023/09/27 05:24:06;;;;;;;34.85;26.30;;;;;;;;;;2073300;28;20461;-57
2023/09/27 05:25:08;;;;;;;36.83;25.58;;;;;;;;;;2073522;28;20179;-57
2023/09/27 05:26:11;;;;;;;37.45;24.45;;;;;;;;;;2073570;28;20411;-57
2023/09/27 05:27:13;;;;;;;31.92;24.05;;;;;;;;;;2073926;28;20086;-57
2023/09/27 05:28:14;;;;;;;31.17;24.90;;;;;;;;;;2074218;28;20389;-57
2023/09/27 05:29:15;;;;;;;32.65;24.17;;;;;;;;;;2073893;28;20053;-57
2023/09/27 05:30:19;;;;;;;30.73;22.98;;;;;;;;;;2073778;28;20065;-57
2023/09/27 05:31:20;;;;;;;28.67;21.40;;;;;;;;;;2073766;28;20528;-57
2023/09/27 05:32:23;;;;;;;30.58;21.50;;;;;;;;;;2073838;28;20179;-58
2023/09/27 05:33:24;;;;;;;27.02;20.90;;;;;;;;;;2072898;28;20042;-58
2023/09/27 05:34:25;;;;;;;25.02;20.17;;;;;;;;;;2073011;28;20053;-57
2023/09/27 05:35:26;;;;;;;26.23;21.27;;;;;;;;;;2073769;28;20087;-57
2023/09/27 05:36:26;;;;;;;26.30;20.27;;;;;;;;;;2073887;28;20078;-57
2023/09/27 05:37:28;;;;;;;25.20;19.83;;;;;;;;;;2073808;28;20042;-57
2023/09/27 05:38:29;;;;;;;24.70;18.42;;;;;;;;;;2073466;28;20041;-57
2023/09/27 05:39:30;;;;;;;20.50;16.58;;;;;;;;;;2074183;28;20033;-57
2023/09/27 05:40:31;;;;;;;22.42;16.70;;;;;;;;;;2074090;28;20053;-57
2023/09/27 05:41:32;;;;;;;18.58;15.20;;;;;;;;;;2073900;28;20053;-57
2023/09/27 05:42:33;;;;;;;18.88;14.55;;;;;;;;;;2074257;28;20442;-57
2023/09/27 05:43:33;;;;;;;18.30;16.30;;;;;;;;;;2073200;28;20045;-57
2023/09/27 05:44:35;;;;;;;23.60;15.07;;;;;;;;;;2073398;28;20478;-57
2023/09/27 05:45:35;;;;;;;18.83;15.30;;;;;;;;;;2073783;28;20029;-57
2023/09/27 05:46:36;;;;;;;17.27;14.15;;;;;;;;;;2074138;28;20037;-57
2023/09/27 05:47:37;;;;;;;16.85;14.50;;;;;;;;;;2072951;28;20413;-57
2023/09/27 05:48:38;;;;;;;15.63;12.48;;;;;;;;;;2072445;28;20577;-57
2023/09/27 05:49:38;;;;;;;16.50;12.80;;;;;;;;;;2073125;28;20478;-57
2023/09/27 05:50:44;;;;;;;17.83;12.88;;;;;;;;;;2073468;28;20045;-58
2023/09/27 05:51:44;;;;;;;13.95;12.00;;;;;;;;;;2074148;28;20029;-57
2023/09/27 05:52:46;;;;;;;12.05;10.50;;;;;;;;;;2073580;28;20042;-57
2023/09/27 05:53:51;;;;;;;13.25;10.52;;;;;;;;;;2073460;28;20057;-57
2023/09/27 05:54:52;;;;;;;12.13;10.20;;;;;;;;;;2074590;28;20037;-57
2023/09/27 05:55:54;;;;;;;14.98;10.15;;;;;;;;;;2075487;28;20034;-57